Time;durP1;ratioP1;P1;durP2;ratioP2;P2;SDS_P1;SDS_P2;PMS_P1;PMS_P2;Temp;Humidity;BMP_temperature;BMP_pressure;BME280_temperature;BME280_humidity;BME280_pressure;Samples;Min_cycle;Max_cycle;Signal;HPM_P1;HPM_P2
2021/03/14 00:02:15;;;;;;;1.20;0.90;;;5.10;98.00;;;;;;5068453;28;20456;-75
2021/03/14 00:04:42;;;;;;;1.20;1.00;;;5.00;98.00;;;;;;5070794;28;20555;-75
2021/03/14 00:07:09;;;;;;;1.20;1.00;;;5.00;98.00;;;;;;5068692;28;20835;-74
2021/03/14 00:09:37;;;;;;;1.20;0.90;;;4.90;98.00;;;;;;5070730;28;20689;-74
2021/03/14 00:12:07;;;;;;;1.20;0.93;;;4.90;98.00;;;;;;5068793;28;20456;-75
2021/03/14 00:14:34;;;;;;;1.20;0.90;;;4.90;98.00;;;;;;5081069;28;20774;-74
2021/03/14 00:17:01;;;;;;;1.20;1.00;;;4.90;98.00;;;;;;5088835;28;20460;-74
2021/03/14 00:19:27;;;;;;;1.20;0.90;;;5.00;98.00;;;;;;5089486;28;20484;-74
2021/03/14 00:21:58;;;;;;;1.20;1.00;;;5.00;98.00;;;;;;5088914;28;21102;-74
2021/03/14 00:24:25;;;;;;;1.20;0.90;;;4.90;98.00;;;;;;5090774;28;20452;-74
2021/03/14 00:26:52;;;;;;;1.20;1.00;;;4.90;98.00;;;;;;5088789;28;20498;-74
2021/03/14 00:29:19;;;;;;;1.20;1.00;;;4.90;98.00;;;;;;5089400;28;20479;-75
2021/03/14 00:31:45;;;;;;;1.20;0.90;;;4.90;98.00;;;;;;5088704;28;20468;-74
2021/03/14 00:34:12;;;;;;;1.20;0.90;;;4.90;98.00;;;;;;5090536;28;20458;-75
2021/03/14 00:36:38;;;;;;;1.20;0.90;;;4.90;98.00;;;;;;5088805;28;20478;-74
2021/03/14 00:39:06;;;;;;;1.20;0.90;;;4.90;98.00;;;;;;5090592;28;20456;-75
2021/03/14 00:41:35;;;;;;;1.20;0.90;;;4.90;98.00;;;;;;5087603;28;20518;-74
2021/03/14 00:44:03;;;;;;;1.20;0.90;;;4.90;98.00;;;;;;5090845;28;20492;-74
2021/03/14 00:46:30;;;;;;;1.20;0.90;;;4.90;98.00;;;;;;5088764;28;20528;-75
2021/03/14 00:48:57;;;;;;;1.20;0.97;;;4.90;98.00;;;;;;5090560;28;20450;-74
2021/03/14 00:51:24;;;;;;;1.20;1.00;;;4.90;98.00;;;;;;5088766;28;20459;-74
2021/03/14 00:53:52;;;;;;;1.20;0.90;;;5.10;98.00;;;;;;5090470;28;20508;-74
2021/03/14 00:56:19;;;;;;;1.20;0.90;;;5.10;98.00;;;;;;5091424;28;20463;-74
2021/03/14 00:58:46;;;;;;;1.20;0.90;;;5.00;98.00;;;;;;5094432;28;20511;-74
2021/03/14 01:01:13;;;;;;;1.20;0.90;;;4.90;98.00;;;;;;5092393;28;20480;-74
2021/03/14 01:03:39;;;;;;;1.20;0.90;;;4.80;98.00;;;;;;5093190;28;20456;-74
2021/03/14 01:06:06;;;;;;;1.20;0.90;;;4.70;98.00;;;;;;5092557;28;20515;-74
2021/03/14 01:08:32;;;;;;;1.20;0.90;;;4.60;98.00;;;;;;5094243;28;20462;-74
2021/03/14 01:10:59;;;;;;;1.30;1.07;;;4.50;98.00;;;;;;5092589;28;20453;-74
2021/03/14 01:13:26;;;;;;;1.20;0.90;;;4.40;98.00;;;;;;5090751;28;20482;-74
2021/03/14 01:15:52;;;;;;;1.20;0.90;;;4.30;98.00;;;;;;5072107;28;20495;-74
2021/03/14 01:18:20;;;;;;;1.20;0.90;;;4.20;98.00;;;;;;5073690;28;20943;-74
2021/03/14 01:20:46;;;;;;;1.20;0.90;;;4.20;98.00;;;;;;5071759;28;20485;-74
2021/03/14 01:23:13;;;;;;;1.80;1.20;;;4.20;98.00;;;;;;5072229;28;20504;-74
2021/03/14 01:25:39;;;;;;;1.20;0.90;;;4.20;98.00;;;;;;5071719;28;20492;-74
2021/03/14 01:28:06;;;;;;;1.20;0.90;;;4.30;98.00;;;;;;5073596;28;20968;-74
2021/03/14 01:30:32;;;;;;;1.17;0.90;;;4.20;98.00;;;;;;5071595;28;21089;-74
2021/03/14 01:32:59;;;;;;;1.20;0.90;;;4.30;98.00;;;;;;5073111;28;20510;-74
2021/03/14 01:35:27;;;;;;;1.20;0.90;;;4.40;98.00;;;;;;5070431;28;20493;-74
2021/03/14 01:37:53;;;;;;;1.10;0.90;;;4.30;98.00;;;;;;5072111;28;20457;-74
2021/03/14 01:40:20;;;;;;;1.17;0.90;;;4.30;98.00;;;;;;5071213;28;20519;-74
2021/03/14 01:42:47;;;;;;;1.20;0.93;;;4.30;98.00;;;;;;5073227;28;20452;-74
2021/03/14 01:45:15;;;;;;;1.20;1.00;;;4.30;98.00;;;;;;5071227;28;20460;-74
2021/03/14 01:47:44;;;;;;;1.20;0.90;;;4.30;98.00;;;;;;5073162;28;20487;-74
2021/03/14 01:50:12;;;;;;;1.20;0.90;;;4.30;98.00;;;;;;5071378;28;20513;-74
2021/03/14 01:52:40;;;;;;;1.20;1.00;;;4.20;98.00;;;;;;5073050;28;20947;-74
2021/03/14 01:55:09;;;;;;;1.20;0.90;;;4.20;98.00;;;;;;5071334;28;20457;-74
2021/03/14 01:57:36;;;;;;;1.20;0.90;;;4.20;98.00;;;;;;5073015;28;20460;-74
2021/03/14 02:00:05;;;;;;;1.20;0.90;;;4.20;98.00;;;;;;5072763;28;20846;-74
2021/03/14 02:02:32;;;;;;;1.20;0.90;;;4.20;98.00;;;;;;5072964;28;20465;-74
2021/03/14 02:04:58;;;;;;;1.20;0.90;;;4.20;98.00;;;;;;5073143;28;20461;-74
2021/03/14 02:07:25;;;;;;;1.20;1.00;;;4.20;98.00;;;;;;5069631;28;20452;-74
2021/03/14 02:09:52;;;;;;;1.20;1.00;;;4.20;98.00;;;;;;5072997;28;20487;-74
2021/03/14 02:12:23;;;;;;;1.20;0.90;;;4.30;98.00;;;;;;5070879;28;20829;-74
2021/03/14 02:14:58;;;;;;;1.20;0.90;;;4.20;98.00;;;;;;5084833;28;20532;-74
2021/03/14 02:17:30;;;;;;;1.20;1.00;;;4.20;98.00;;;;;;5091168;28;20459;-74
2021/03/14 02:20:03;;;;;;;1.20;0.90;;;4.10;98.00;;;;;;5091813;28;20506;-74
2021/03/14 02:22:30;;;;;;;1.20;0.90;;;4.10;98.00;;;;;;5091300;28;20953;-74
2021/03/14 02:25:01;;;;;;;1.20;0.90;;;4.10;98.00;;;;;;5092987;28;20828;-74
2021/03/14 02:27:30;;;;;;;1.20;0.90;;;4.10;98.00;;;;;;5090807;28;20823;-74
2021/03/14 02:29:57;;;;;;;1.20;0.90;;;4.10;98.00;;;;;;5092762;28;20522;-74
2021/03/14 02:32:25;;;;;;;1.20;0.90;;;4.20;98.00;;;;;;5090578;28;20820;-74
2021/03/14 02:34:55;;;;;;;1.20;0.90;;;4.10;98.00;;;;;;5092678;28;20463;-74
2021/03/14 02:37:22;;;;;;;1.20;0.90;;;4.10;98.00;;;;;;5090568;28;20883;-73
2021/03/14 02:39:54;;;;;;;1.20;0.97;;;4.00;98.00;;;;;;5092672;28;20480;-74
2021/03/14 02:42:23;;;;;;;1.20;1.00;;;4.00;98.00;;;;;;5090429;28;20536;-74
2021/03/14 02:44:54;;;;;;;1.20;0.90;;;4.00;98.00;;;;;;5091093;28;20455;-74
2021/03/14 02:47:22;;;;;;;1.20;0.90;;;3.90;98.00;;;;;;5090271;28;20495;-73
2021/03/14 02:49:51;;;;;;;1.20;1.00;;;4.00;98.00;;;;;;5092296;28;20510;-74
2021/03/14 02:52:19;;;;;;;1.20;1.00;;;3.90;98.00;;;;;;5090297;28;20459;-74
2021/03/14 02:54:48;;;;;;;1.20;1.00;;;3.90;98.00;;;;;;5092329;28;20452;-74
2021/03/14 02:57:18;;;;;;;1.20;0.97;;;3.90;98.00;;;;;;5090409;28;20467;-74
2021/03/14 02:59:49;;;;;;;1.20;0.90;;;3.80;98.00;;;;;;5092536;28;20573;-74
2021/03/14 03:02:19;;;;;;;1.20;1.00;;;3.80;98.00;;;;;;5089499;28;20534;-74
2021/03/14 03:04:47;;;;;;;1.20;0.90;;;3.80;98.00;;;;;;5092267;28;20459;-74
2021/03/14 03:07:15;;;;;;;1.20;0.90;;;3.80;98.00;;;;;;5090053;28;21005;-74
2021/03/14 03:09:42;;;;;;;1.20;1.00;;;3.80;98.00;;;;;;5091873;28;20960;-74
2021/03/14 03:12:11;;;;;;;1.20;0.90;;;3.80;98.00;;;;;;5089916;28;20461;-74
2021/03/14 03:14:39;;;;;;;1.20;1.00;;;3.80;98.00;;;;;;5089818;28;20460;-74
2021/03/14 03:17:06;;;;;;;1.20;1.00;;;3.80;98.00;;;;;;5089920;28;20487;-74
2021/03/14 03:19:37;;;;;;;1.13;0.90;;;3.80;98.00;;;;;;5091264;28;21008;-74
2021/03/14 03:22:04;;;;;;;1.20;0.90;;;3.80;98.00;;;;;;5089975;28;20889;-74
2021/03/14 03:24:30;;;;;;;1.10;0.90;;;3.90;98.00;;;;;;5091759;28;20455;-74
2021/03/14 03:26:57;;;;;;;1.17;0.90;;;3.90;98.00;;;;;;5089656;28;20475;-74
2021/03/14 03:29:24;;;;;;;1.20;1.00;;;3.90;98.00;;;;;;5091470;28;20459;-74
2021/03/14 03:31:50;;;;;;;1.20;1.00;;;3.80;98.00;;;;;;5089806;28;20456;-74
2021/03/14 03:34:17;;;;;;;1.20;0.90;;;3.90;98.00;;;;;;5090374;28;20471;-74
2021/03/14 03:36:45;;;;;;;1.20;1.00;;;3.90;98.00;;;;;;5089678;28;20511;-74
2021/03/14 03:39:13;;;;;;;1.10;0.90;;;3.90;98.00;;;;;;5091668;28;20990;-74
2021/03/14 03:41:47;;;;;;;1.20;0.90;;;4.00;98.00;;;;;;5089468;28;20488;-74
2021/03/14 03:44:17;;;;;;;1.20;0.90;;;4.00;98.00;;;;;;5091756;28;20950;-74
2021/03/14 03:46:44;;;;;;;1.20;1.00;;;4.00;98.00;;;;;;5089518;28;20471;-74
2021/03/14 03:49:13;;;;;;;1.20;0.90;;;4.00;98.00;;;;;;5091453;28;20475;-74
2021/03/14 03:51:41;;;;;;;1.20;0.90;;;3.90;98.00;;;;;;5088153;28;20451;-74
2021/03/14 03:54:10;;;;;;;1.20;0.90;;;3.90;98.00;;;;;;5091230;28;20490;-74
2021/03/14 03:56:40;;;;;;;1.20;0.90;;;3.80;98.00;;;;;;5089148;28;20513;-74
2021/03/14 03:59:07;;;;;;;1.17;0.90;;;3.80;98.00;;;;;;5091141;28;20476;-74
2021/03/14 04:01:35;;;;;;;1.13;0.90;;;3.80;98.00;;;;;;5089311;28;21105;-74
2021/03/14 04:04:04;;;;;;;1.20;0.90;;;3.80;98.00;;;;;;5089603;28;21175;-74
2021/03/14 04:06:31;;;;;;;1.20;0.90;;;3.80;98.00;;;;;;5089049;28;20487;-74
2021/03/14 04:09:00;;;;;;;1.13;0.90;;;3.80;98.00;;;;;;5090996;28;20841;-74
2021/03/14 04:11:29;;;;;;;1.10;0.90;;;3.80;98.00;;;;;;5089030;28;20477;-74
2021/03/14 04:13:57;;;;;;;1.20;0.90;;;3.80;98.00;;;;;;5082051;28;20449;-74
2021/03/14 04:16:25;;;;;;;1.13;0.90;;;3.80;98.00;;;;;;5068843;28;20939;-74
2021/03/14 04:18:52;;;;;;;1.20;0.90;;;3.80;98.00;;;;;;5070661;28;20453;-74
2021/03/14 04:21:20;;;;;;;1.17;0.90;;;3.80;98.00;;;;;;5067801;28;20491;-74
2021/03/14 04:23:49;;;;;;;1.30;1.03;;;3.80;98.00;;;;;;5071896;28;20472;-74
2021/03/14 04:26:18;;;;;;;1.20;0.90;;;3.80;98.00;;;;;;5068697;28;20453;-74
2021/03/14 04:28:47;;;;;;;1.20;1.00;;;3.80;98.00;;;;;;5071726;28;20460;-74
2021/03/14 04:31:15;;;;;;;1.20;1.00;;;3.80;98.00;;;;;;5071371;28;20459;-74
2021/03/14 04:33:43;;;;;;;1.20;1.00;;;3.70;98.00;;;;;;5074568;28;20489;-74
2021/03/14 04:36:10;;;;;;;1.20;0.90;;;3.70;98.00;;;;;;5072904;28;20579;-71
2021/03/14 04:38:38;;;;;;;1.20;0.90;;;3.70;98.00;;;;;;5074725;28;20460;-71
2021/03/14 04:41:06;;;;;;;1.20;0.90;;;3.70;98.00;;;;;;5071185;28;20491;-71
2021/03/14 04:43:33;;;;;;;1.20;0.90;;;3.70;98.00;;;;;;5074557;28;20492;-71
2021/03/14 04:46:01;;;;;;;1.20;1.00;;;3.60;98.00;;;;;;5072592;28;20469;-72
2021/03/14 04:48:28;;;;;;;1.10;0.90;;;3.60;98.00;;;;;;5074373;28;20468;-71
2021/03/14 04:50:55;;;;;;;1.20;1.00;;;3.60;98.00;;;;;;5072353;28;20457;-71
2021/03/14 04:53:25;;;;;;;1.20;0.90;;;3.60;98.00;;;;;;5074320;28;20453;-72
2021/03/14 04:55:53;;;;;;;1.17;0.90;;;3.70;98.00;;;;;;5072734;28;20484;-72
2021/03/14 04:58:22;;;;;;;1.20;0.90;;;3.70;98.00;;;;;;5072942;28;20456;-72
2021/03/14 05:00:50;;;;;;;1.20;0.90;;;3.70;98.00;;;;;;5072176;28;20488;-72
2021/03/14 05:03:22;;;;;;;1.13;0.90;;;3.70;98.00;;;;;;5074360;28;20943;-72
2021/03/14 05:05:50;;;;;;;1.20;1.00;;;3.70;98.00;;;;;;5072576;28;20479;-71
2021/03/14 05:08:20;;;;;;;1.20;0.90;;;3.70;98.00;;;;;;5074174;28;20452;-71
2021/03/14 05:10:47;;;;;;;1.20;1.00;;;3.70;98.00;;;;;;5072057;28;20452;-72
2021/03/14 05:13:14;;;;;;;1.17;1.00;;;3.70;98.00;;;;;;5073190;28;20449;-73
2021/03/14 05:15:42;;;;;;;2.37;1.30;;;3.70;98.00;;;;;;5051926;28;20457;-71
2021/03/14 05:18:11;;;;;;;1.20;1.00;;;3.60;98.00;;;;;;5052715;28;20473;-71
2021/03/14 05:20:39;;;;;;;1.20;0.90;;;3.60;98.00;;;;;;5052001;28;20485;-72
2021/03/14 05:23:06;;;;;;;1.20;0.93;;;3.70;98.00;;;;;;5053855;28;20461;-71
2021/03/14 05:25:33;;;;;;;1.20;1.10;;;3.70;98.00;;;;;;5050688;28;20527;-72
2021/03/14 05:28:03;;;;;;;1.47;1.17;;;3.60;98.00;;;;;;5053754;28;20504;-72
2021/03/14 05:30:34;;;;;;;1.20;1.00;;;3.70;98.00;;;;;;5051753;28;20519;-71
2021/03/14 05:33:01;;;;;;;1.20;1.00;;;3.70;98.00;;;;;;5053723;28;20488;-71
2021/03/14 05:35:30;;;;;;;1.20;0.90;;;3.70;98.00;;;;;;5051813;28;20471;-72
2021/03/14 05:37:58;;;;;;;2.13;1.37;;;3.70;98.00;;;;;;5053586;28;20486;-72
2021/03/14 05:40:26;;;;;;;1.20;0.90;;;3.70;98.00;;;;;;5053273;28;20860;-71
2021/03/14 05:42:54;;;;;;;1.20;1.10;;;3.70;98.00;;;;;;5051289;28;20480;-71
2021/03/14 05:45:21;;;;;;;1.20;0.90;;;3.80;98.00;;;;;;5053394;28;20460;-71
2021/03/14 05:47:48;;;;;;;1.20;0.90;;;3.80;98.00;;;;;;5051479;28;20843;-72
2021/03/14 05:50:16;;;;;;;1.33;1.20;;;3.70;98.00;;;;;;5053436;28;20884;-72
2021/03/14 05:52:44;;;;;;;1.20;0.90;;;3.80;98.00;;;;;;5051214;28;20474;-72
2021/03/14 05:55:15;;;;;;;1.70;1.13;;;3.80;98.00;;;;;;5053218;28;20830;-72
2021/03/14 05:57:44;;;;;;;1.20;0.90;;;3.80;98.00;;;;;;5051482;28;20544;-72
2021/03/14 06:00:15;;;;;;;1.20;1.00;;;3.80;98.00;;;;;;5053045;28;20539;-72
2021/03/14 06:02:43;;;;;;;3.17;2.03;;;3.90;98.00;;;;;;5049904;28;20868;-72
2021/03/14 06:05:12;;;;;;;1.20;0.97;;;3.80;98.00;;;;;;5053081;28;20458;-72
2021/03/14 06:07:38;;;;;;;1.20;1.00;;;3.80;98.00;;;;;;5049899;28;20457;-72
2021/03/14 06:10:06;;;;;;;1.20;1.00;;;3.80;98.00;;;;;;5052070;28;20556;-72
2021/03/14 06:12:34;;;;;;;1.20;0.90;;;3.90;98.00;;;;;;5050664;28;20457;-72
2021/03/14 06:15:01;;;;;;;1.70;1.27;;;3.90;98.00;;;;;;5083842;28;21052;-72
2021/03/14 06:17:28;;;;;;;1.20;0.90;;;3.80;98.00;;;;;;5089948;28;20448;-72
2021/03/14 06:19:54;;;;;;;1.20;0.90;;;3.80;98.00;;;;;;5092814;28;20484;-72
2021/03/14 06:22:23;;;;;;;1.20;1.00;;;3.80;98.00;;;;;;5091107;28;20463;-72
2021/03/14 06:24:51;;;;;;;1.20;0.90;;;3.90;98.00;;;;;;5092930;28;20514;-72
2021/03/14 06:27:34;;;;;;;1.20;1.00;;;3.80;98.00;;;;;;5089729;28;20455;-72
2021/03/14 06:30:01;;;;;;;1.20;1.00;;;3.90;98.00;;;;;;5091957;28;20517;-72
2021/03/14 06:32:31;;;;;;;1.20;1.00;;;3.90;98.00;;;;;;5090858;28;20529;-72
2021/03/14 06:35:13;;;;;;;1.20;0.90;;;4.00;98.00;;;;;;5092496;28;20934;-72
2021/03/14 06:37:39;;;;;;;1.20;0.90;;;4.00;98.00;;;;;;5090838;28;20456;-71
2021/03/14 06:40:11;;;;;;;1.20;0.90;;;4.00;98.00;;;;;;5092501;28;20517;-72
2021/03/14 06:42:39;;;;;;;1.20;1.00;;;4.00;98.00;;;;;;5089458;28;20444;-72
2021/03/14 06:45:09;;;;;;;1.20;0.90;;;4.00;98.00;;;;;;5092548;28;20495;-72
2021/03/14 06:47:44;;;;;;;1.20;1.00;;;4.00;98.00;;;;;;5090440;28;20468;-71
2021/03/14 06:50:32;;;;;;;1.20;1.00;;;4.00;98.00;;;;;;5091003;28;20455;-72
2021/03/14 06:53:09;;;;;;;1.20;0.90;;;4.10;98.00;;;;;;5090636;28;20464;-72
2021/03/14 06:55:37;;;;;;;1.30;1.10;;;4.10;98.00;;;;;;5090243;28;20491;-72
2021/03/14 06:58:21;;;;;;;1.20;1.03;;;4.10;98.00;;;;;;5092084;28;20452;-72
2021/03/14 07:01:07;;;;;;;1.20;0.90;;;4.10;98.00;;;;;;5090236;28;20550;-72
2021/03/14 07:03:34;;;;;;;1.20;1.00;;;4.20;98.00;;;;;;5092110;28;20488;-71
2021/03/14 07:06:15;;;;;;;1.20;0.90;;;4.20;98.00;;;;;;5090253;28;20600;-72
2021/03/14 07:08:41;;;;;;;1.20;0.90;;;4.20;98.00;;;;;;5092008;28;20459;-72
2021/03/14 07:11:08;;;;;;;1.20;0.90;;;4.20;98.00;;;;;;5089914;28;20453;-69
2021/03/14 07:13:37;;;;;;;1.20;0.90;;;4.30;98.00;;;;;;5089662;28;20494;-73
2021/03/14 07:16:05;;;;;;;1.20;1.00;;;4.40;98.00;;;;;;5089934;28;20520;-72
2021/03/14 07:18:33;;;;;;;1.20;0.90;;;4.40;98.00;;;;;;5090288;28;20456;-72
2021/03/14 07:21:03;;;;;;;1.20;0.90;;;4.40;98.00;;;;;;5089532;28;20487;-71
2021/03/14 07:23:34;;;;;;;1.20;1.00;;;4.50;98.00;;;;;;5091517;28;20491;-71
2021/03/14 07:26:01;;;;;;;1.20;0.90;;;4.50;98.00;;;;;;5089554;28;20542;-71
2021/03/14 07:28:28;;;;;;;1.20;1.00;;;4.60;98.00;;;;;;5091549;28;20958;-73
2021/03/14 07:30:56;;;;;;;1.30;1.10;;;4.60;98.00;;;;;;5088122;28;20740;-72
2021/03/14 07:33:23;;;;;;;1.33;1.03;;;4.70;98.00;;;;;;5091472;28;20455;-71
2021/03/14 07:35:50;;;;;;;1.20;0.90;;;4.80;98.00;;;;;;5089258;28;20824;-72
2021/03/14 07:38:16;;;;;;;1.20;0.90;;;4.80;98.00;;;;;;5091252;28;20456;-71
2021/03/14 07:40:43;;;;;;;1.20;0.90;;;4.90;98.00;;;;;;5089226;28;20475;-71
2021/03/14 07:43:10;;;;;;;1.20;1.00;;;4.90;98.00;;;;;;5091502;28;20534;-72
2021/03/14 07:45:40;;;;;;;1.20;0.90;;;5.00;98.00;;;;;;5091451;28;20463;-71
2021/03/14 07:48:10;;;;;;;1.20;0.90;;;5.10;98.00;;;;;;5091304;28;20575;-71
2021/03/14 07:50:42;;;;;;;1.20;0.90;;;5.20;98.00;;;;;;5091245;28;20453;-71
2021/03/14 07:53:10;;;;;;;1.20;1.00;;;5.20;98.00;;;;;;5091321;28;20886;-73
2021/03/14 07:55:39;;;;;;;1.20;0.90;;;5.10;98.00;;;;;;5091173;28;20456;-73
2021/03/14 07:58:06;;;;;;;1.30;1.10;;;5.00;98.00;;;;;;5090442;28;20463;-73
2021/03/14 08:00:34;;;;;;;1.20;1.00;;;5.00;98.00;;;;;;5091296;28;20491;-73
2021/03/14 08:03:01;;;;;;;1.20;1.00;;;5.00;98.00;;;;;;5087479;28;20695;-74
2021/03/14 08:05:48;;;;;;;1.20;1.00;;;5.00;98.00;;;;;;5090197;28;20568;-74
2021/03/14 08:08:50;;;;;;;1.30;1.10;;;5.10;98.00;;;;;;5089687;28;20974;-75
2021/03/14 08:11:28;;;;;;;1.20;1.00;;;5.20;98.00;;;;;;5083445;28;20452;-74
2021/03/14 08:13:55;;;;;;;1.20;0.90;;;5.30;98.00;;;;;;5083057;28;20461;-75
2021/03/14 08:16:22;;;;;;;1.20;0.90;;;5.30;98.00;;;;;;5068024;28;20457;-73
2021/03/14 08:18:50;;;;;;;1.20;0.90;;;5.40;98.00;;;;;;5069962;28;20963;-74
2021/03/14 08:21:36;;;;;;;1.20;0.90;;;5.40;98.00;;;;;;5068002;28;20773;-76
2021/03/14 08:24:03;;;;;;;1.20;0.90;;;5.30;98.00;;;;;;5070127;28;20457;-76
2021/03/14 08:26:32;;;;;;;1.20;1.00;;;5.30;98.00;;;;;;5067854;28;20458;-72
2021/03/14 08:29:00;;;;;;;1.20;0.90;;;5.30;98.00;;;;;;5069797;28;20461;-73
2021/03/14 08:31:47;;;;;;;1.20;0.90;;;5.20;98.00;;;;;;5067922;28;21051;-73
2021/03/14 08:34:18;;;;;;;1.20;1.00;;;5.20;98.00;;;;;;5068630;28;20989;-73
2021/03/14 08:36:46;;;;;;;1.20;1.00;;;5.20;98.00;;;;;;5067928;28;20488;-73
2021/03/14 08:39:21;;;;;;;1.20;1.00;;;5.30;98.00;;;;;;5069654;28;20489;-73
2021/03/14 08:41:49;;;;;;;1.20;0.90;;;5.30;98.00;;;;;;5068002;28;20574;-73
2021/03/14 08:44:33;;;;;;;1.20;0.93;;;5.30;98.00;;;;;;5069653;28;20607;-74
2021/03/14 08:47:04;;;;;;;1.20;1.00;;;5.50;98.00;;;;;;5068003;28;20516;-68
2021/03/14 08:49:32;;;;;;;1.20;0.90;;;5.60;98.00;;;;;;5069654;28;20556;-70
2021/03/14 08:51:59;;;;;;;1.20;1.00;;;5.60;98.00;;;;;;5068117;28;20467;-78
2021/03/14 08:54:28;;;;;;;1.20;0.90;;;5.60;98.00;;;;;;5070020;28;20866;-77
2021/03/14 08:56:59;;;;;;;1.20;0.90;;;5.50;98.00;;;;;;5068092;28;21074;-77
2021/03/14 08:59:26;;;;;;;1.20;0.90;;;5.60;98.00;;;;;;5069630;28;20458;-72
2021/03/14 09:01:56;;;;;;;1.20;0.90;;;5.70;98.00;;;;;;5067594;28;20518;-74
2021/03/14 09:04:24;;;;;;;1.20;0.90;;;5.70;98.00;;;;;;5069612;28;20481;-76
2021/03/14 09:06:50;;;;;;;1.20;0.90;;;5.70;98.00;;;;;;5068029;28;20474;-76
2021/03/14 09:09:20;;;;;;;1.20;0.90;;;5.80;98.00;;;;;;5069391;28;20469;-76
2021/03/14 09:11:48;;;;;;;1.20;0.90;;;5.90;98.00;;;;;;5067723;28;20455;-75
2021/03/14 09:14:34;;;;;;;1.20;0.90;;;5.90;98.00;;;;;;5069026;28;20458;-73
2021/03/14 09:17:05;;;;;;;1.20;1.00;;;6.00;98.00;;;;;;5069893;28;20458;-80
2021/03/14 09:19:48;;;;;;;1.20;0.90;;;6.10;98.00;;;;;;5074075;28;20458;-78
2021/03/14 09:22:16;;;;;;;1.20;1.00;;;6.10;98.00;;;;;;5072464;28;20469;-74
2021/03/14 09:24:46;;;;;;;1.20;1.00;;;6.00;98.00;;;;;;5073542;28;20474;-73
2021/03/14 09:27:16;;;;;;;1.20;0.90;;;5.90;98.00;;;;;;5070237;28;20525;-72
2021/03/14 09:29:51;;;;;;;1.20;1.00;;;5.80;98.00;;;;;;5072948;28;20867;-71
2021/03/14 09:32:21;;;;;;;1.20;1.00;;;5.70;98.00;;;;;;5070818;28;20983;-73
2021/03/14 09:34:49;;;;;;;1.20;1.00;;;5.70;98.00;;;;;;5072814;28;20457;-73
2021/03/14 09:37:29;;;;;;;1.20;0.90;;;5.70;98.00;;;;;;5070705;28;20465;-73
2021/03/14 09:40:20;;;;;;;1.20;0.97;;;5.70;98.00;;;;;;5072371;28;20457;-73
2021/03/14 09:42:48;;;;;;;1.20;0.90;;;5.70;98.00;;;;;;5071201;28;20458;-75
2021/03/14 09:45:17;;;;;;;1.20;0.90;;;5.80;98.00;;;;;;5073012;28;20458;-73
2021/03/14 09:48:05;;;;;;;1.20;1.00;;;6.10;98.00;;;;;;5069372;28;20571;-73
2021/03/14 09:50:33;;;;;;;1.20;1.00;;;6.30;98.00;;;;;;5070873;28;20476;-71
2021/03/14 09:53:04;;;;;;;1.20;1.00;;;6.70;98.00;;;;;;5071009;28;20459;-72
2021/03/14 09:55:33;;;;;;;1.20;0.93;;;7.00;98.00;;;;;;5073023;28;20450;-71
2021/03/14 09:58:00;;;;;;;1.20;1.00;;;7.30;98.00;;;;;;5070952;28;20458;-72
2021/03/14 10:00:28;;;;;;;1.20;0.93;;;7.30;98.00;;;;;;5071582;28;20477;-73
2021/03/14 10:02:58;;;;;;;1.20;1.00;;;7.20;95.20;;;;;;5071014;28;20458;-72
2021/03/14 10:05:24;;;;;;;1.20;1.00;;;7.00;94.20;;;;;;5072937;28;20459;-72
2021/03/14 10:07:52;;;;;;;1.20;1.00;;;6.80;95.10;;;;;;5071101;28;20458;-73
2021/03/14 10:10:19;;;;;;;1.20;1.00;;;6.80;95.50;;;;;;5072876;28;20502;-73
2021/03/14 10:12:47;;;;;;;1.20;0.90;;;6.70;96.30;;;;;;5071129;28;20488;-72
2021/03/14 10:15:16;;;;;;;1.40;1.27;;;6.70;97.00;;;;;;5087597;28;20461;-73
2021/03/14 10:17:45;;;;;;;1.20;0.97;;;6.70;96.90;;;;;;5091290;28;20457;-73
2021/03/14 10:20:13;;;;;;;1.20;0.90;;;6.70;97.10;;;;;;5093355;28;20476;-72
2021/03/14 10:22:41;;;;;;;1.20;0.90;;;6.70;95.80;;;;;;5090710;28;20467;-73
2021/03/14 10:25:23;;;;;;;1.20;0.90;;;6.70;96.60;;;;;;5093301;28;20469;-73
2021/03/14 10:27:51;;;;;;;1.20;0.90;;;6.70;95.40;;;;;;5090322;28;20558;-73
2021/03/14 10:30:19;;;;;;;1.20;0.90;;;6.80;97.70;;;;;;5093305;28;20475;-73
2021/03/14 10:32:47;;;;;;;1.20;0.90;;;6.80;94.70;;;;;;5090556;28;20557;-73
2021/03/14 10:35:14;;;;;;;1.20;0.90;;;6.90;96.60;;;;;;5093372;28;20460;-73
2021/03/14 10:37:43;;;;;;;1.20;1.00;;;6.90;95.60;;;;;;5090885;28;20452;-73
2021/03/14 10:40:12;;;;;;;1.20;1.00;;;6.90;95.00;;;;;;5092999;28;20455;-73
2021/03/14 10:42:40;;;;;;;1.20;0.90;;;6.70;95.20;;;;;;5090498;28;20515;-73
2021/03/14 10:45:13;;;;;;;1.20;1.00;;;6.60;94.90;;;;;;5093001;28;20458;-73
2021/03/14 10:47:41;;;;;;;1.20;1.00;;;6.50;96.60;;;;;;5090232;28;20464;-74
2021/03/14 10:50:19;;;;;;;1.20;0.90;;;6.50;95.80;;;;;;5092759;28;21013;-73
2021/03/14 10:53:06;;;;;;;1.20;0.90;;;6.50;95.90;;;;;;5089566;28;20456;-74
2021/03/14 10:55:34;;;;;;;1.20;1.00;;;6.40;96.60;;;;;;5092707;28;20455;-73
2021/03/14 10:58:15;;;;;;;1.20;0.90;;;6.30;96.80;;;;;;5089667;28;20463;-73
2021/03/14 11:00:46;;;;;;;1.20;1.00;;;6.40;98.00;;;;;;5092826;28;20484;-72
2021/03/14 11:03:30;;;;;;;1.20;0.90;;;6.50;98.00;;;;;;5091027;28;20456;-73
2021/03/14 11:06:14;;;;;;;1.20;0.90;;;6.70;97.60;;;;;;5091840;28;20475;-75
2021/03/14 11:09:03;;;;;;;1.20;0.90;;;6.80;97.10;;;;;;5092207;28;20522;-73
2021/03/14 11:11:43;;;;;;;1.20;0.90;;;6.90;97.40;;;;;;5087118;28;20467;-73
2021/03/14 11:14:31;;;;;;;1.20;0.90;;;7.20;96.70;;;;;;5082229;28;20454;-74
2021/03/14 11:17:13;;;;;;;1.20;0.90;;;7.20;95.60;;;;;;5067636;28;20470;-74
2021/03/14 11:19:43;;;;;;;1.20;0.90;;;7.20;96.10;;;;;;5070300;28;20466;-74
2021/03/14 11:22:12;;;;;;;1.20;0.90;;;7.20;96.60;;;;;;5069385;28;20541;-73
2021/03/14 11:24:39;;;;;;;1.20;0.90;;;7.10;96.40;;;;;;5071348;28;20973;-73
2021/03/14 11:27:07;;;;;;;1.20;1.00;;;7.10;97.00;;;;;;5069058;28;20461;-73
2021/03/14 11:29:36;;;;;;;1.20;1.00;;;7.10;96.80;;;;;;5071426;28;20466;-74
2021/03/14 11:32:03;;;;;;;1.40;1.10;;;7.20;95.20;;;;;;5068916;28;20452;-75
2021/03/14 11:34:32;;;;;;;1.20;1.00;;;7.20;95.60;;;;;;5071373;28;20463;-75
2021/03/14 11:36:58;;;;;;;1.20;0.90;;;7.50;95.10;;;;;;5068847;28;20469;-75
2021/03/14 11:39:25;;;;;;;1.20;1.00;;;7.60;92.20;;;;;;5071251;28;20939;-75
2021/03/14 11:41:51;;;;;;;1.30;1.00;;;7.80;93.60;;;;;;5069196;28;20574;-73
2021/03/14 11:44:18;;;;;;;1.20;0.90;;;7.80;92.80;;;;;;5070031;28;20466;-75
2021/03/14 11:46:45;;;;;;;1.20;0.90;;;7.80;91.90;;;;;;5068606;28;20823;-74
2021/03/14 11:49:13;;;;;;;1.20;0.90;;;7.70;92.60;;;;;;5071216;28;20451;-78
2021/03/14 11:51:40;;;;;;;1.20;0.90;;;7.60;92.40;;;;;;5069040;28;20943;-74
2021/03/14 11:54:10;;;;;;;1.40;1.17;;;7.40;90.10;;;;;;5069736;28;20526;-74
2021/03/14 11:56:36;;;;;;;1.20;0.90;;;7.40;91.10;;;;;;5068640;28;20460;-74
2021/03/14 11:59:03;;;;;;;1.20;0.90;;;7.50;90.70;;;;;;5069771;28;20516;-73
2021/03/14 12:01:30;;;;;;;1.20;1.00;;;7.60;90.60;;;;;;5068611;28;20491;-73
2021/03/14 12:04:00;;;;;;;1.20;1.03;;;7.50;91.20;;;;;;5071404;28;20459;-74
2021/03/14 12:06:26;;;;;;;1.20;0.90;;;7.50;93.40;;;;;;5069130;28;21064;-78
2021/03/14 12:08:55;;;;;;;1.20;0.90;;;7.50;91.40;;;;;;5070283;28;20511;-74
2021/03/14 12:11:22;;;;;;;1.20;0.97;;;7.50;90.20;;;;;;5068583;28;20460;-74
2021/03/14 12:13:49;;;;;;;1.20;1.00;;;7.40;89.90;;;;;;5068781;28;20493;-74
2021/03/14 12:16:16;;;;;;;1.20;1.00;;;7.60;90.20;;;;;;5067569;28;20452;-75
2021/03/14 12:18:43;;;;;;;1.20;1.00;;;7.80;89.10;;;;;;5069675;28;20473;-73
2021/03/14 12:21:11;;;;;;;1.20;1.00;;;7.80;90.80;;;;;;5068753;28;20481;-71
2021/03/14 12:23:37;;;;;;;1.20;0.90;;;7.70;87.10;;;;;;5070647;28;20457;-73
2021/03/14 12:26:05;;;;;;;2.43;1.17;;;7.60;87.10;;;;;;5070749;28;20472;-73
2021/03/14 12:28:32;;;;;;;1.20;1.00;;;7.50;88.10;;;;;;5067933;28;20960;-73
2021/03/14 12:30:59;;;;;;;1.20;0.90;;;7.60;88.90;;;;;;5070105;28;20453;-73
2021/03/14 12:33:26;;;;;;;1.20;1.00;;;7.60;88.60;;;;;;5068505;28;20583;-73
2021/03/14 12:35:53;;;;;;;1.20;0.90;;;7.60;88.50;;;;;;5071115;28;20456;-73
2021/03/14 12:38:20;;;;;;;1.20;1.00;;;7.60;87.70;;;;;;5068386;28;20464;-73
2021/03/14 12:40:47;;;;;;;1.20;0.90;;;7.40;89.00;;;;;;5070630;28;20556;-73
2021/03/14 12:43:17;;;;;;;1.30;1.30;;;7.50;89.10;;;;;;5067205;28;20839;-73
2021/03/14 12:45:44;;;;;;;1.20;1.00;;;7.50;89.20;;;;;;5070548;28;20945;-73
2021/03/14 12:48:12;;;;;;;1.20;1.00;;;7.50;89.20;;;;;;5067318;28;20454;-73
2021/03/14 12:50:39;;;;;;;1.20;0.90;;;7.40;89.10;;;;;;5070451;28;20444;-73
2021/03/14 12:53:05;;;;;;;1.20;0.90;;;7.20;90.40;;;;;;5072034;28;20501;-73
2021/03/14 12:55:33;;;;;;;1.20;0.90;;;7.10;92.90;;;;;;5073807;28;20455;-72
2021/03/14 12:58:01;;;;;;;1.20;0.90;;;7.10;94.30;;;;;;5071634;28;20494;-72
2021/03/14 13:00:29;;;;;;;1.20;1.00;;;7.00;95.60;;;;;;5073991;28;20474;-72
2021/03/14 13:02:56;;;;;;;1.20;1.10;;;6.90;94.90;;;;;;5072211;28;20490;-72
2021/03/14 13:05:26;;;;;;;1.20;1.00;;;6.80;95.20;;;;;;5074102;28;20490;-72
2021/03/14 13:07:54;;;;;;;1.20;0.90;;;6.90;95.70;;;;;;5071522;28;20458;-72
2021/03/14 13:10:21;;;;;;;1.20;0.90;;;6.80;95.90;;;;;;5073976;28;20458;-73